Time;durP1;ratioP1;P1;durP2;ratioP2;P2;SDS_P1;SDS_P2;PMS_P1;PMS_P2;Temp;Humidity;BMP_temperature;BMP_pressure;BME280_temperature;BME280_humidity;BME280_pressure;Samples;Min_cycle;Max_cycle;Signal;HPM_P1;HPM_P2
2021/01/23 00:01:19;;;;;;;18.23;10.27;;;205.60;2176.00;;;;;;5133238;27;20094;-81
2021/01/23 00:03:45;;;;;;;18.63;9.23;;;205.60;2176.00;;;;;;5134535;27;20156;-80
2021/01/23 00:06:11;;;;;;;20.00;9.63;;;205.60;2176.00;;;;;;5132722;28;20023;-80
2021/01/23 00:08:37;;;;;;;17.58;9.52;;;205.60;2150.40;;;;;;5134175;27;20479;-82
2021/01/23 00:11:03;;;;;;;18.35;9.70;;;205.70;2150.40;;;;;;5134039;27;20038;-84
2021/01/23 00:13:30;;;;;;;20.45;9.70;;;205.70;2150.40;;;;;;5133045;28;20023;-85
2021/01/23 00:15:56;;;;;;;28.02;11.93;;;205.50;2150.40;;;;;;5132797;28;20073;-84
2021/01/23 00:18:21;;;;;;;15.98;8.90;;;205.60;2176.00;;;;;;5132708;28;20047;-78
2021/01/23 00:20:47;;;;;;;16.85;9.05;;;205.60;2176.00;;;;;;5134002;27;20059;-84
2021/01/23 00:23:13;;;;;;;22.85;10.27;;;205.70;2150.40;;;;;;5133707;27;20124;-80
2021/01/23 00:25:39;;;;;;;21.90;11.05;;;205.60;2176.00;;;;;;5133745;27;20507;-82
2021/01/23 00:28:05;;;;;;;25.15;11.05;;;205.60;2150.40;;;;;;5134103;27;20035;-82
2021/01/23 00:30:31;;;;;;;22.63;9.93;;;205.60;2176.00;;;;;;5132943;28;20077;-84
2021/01/23 00:32:57;;;;;;;16.10;8.75;;;205.60;2176.00;;;;;;5132960;28;20033;-84
2021/01/23 00:35:23;;;;;;;19.33;8.77;;;205.60;2150.40;;;;;;5133701;27;20027;-83
2021/01/23 00:37:49;;;;;;;17.15;9.00;;;205.70;2150.40;;;;;;5132699;28;20028;-85
2021/01/23 00:40:16;;;;;;;16.38;8.38;;;205.60;2150.40;;;;;;5132875;28;20034;-77
2021/01/23 00:42:42;;;;;;;15.38;8.35;;;205.70;2150.40;;;;;;5131984;28;20475;-80
2021/01/23 00:45:09;;;;;;;22.20;10.57;;;205.70;2150.40;;;;;;5133976;27;20038;-84
2021/01/23 00:47:34;;;;;;;18.13;8.75;;;205.70;2150.40;;;;;;5132506;28;20027;-80
2021/01/23 00:50:00;;;;;;;20.02;7.95;;;205.70;2150.40;;;;;;5133518;27;20391;-79
2021/01/23 00:52:26;;;;;;;15.93;8.48;;;205.70;2150.40;;;;;;5132415;28;20028;-78
2021/01/23 00:54:52;;;;;;;15.20;7.07;;;205.70;2150.40;;;;;;5131954;28;20027;-81
2021/01/23 00:57:18;;;;;;;14.18;6.82;;;205.70;2150.40;;;;;;5132105;28;20114;-77
2021/01/23 00:59:44;;;;;;;16.88;7.38;;;205.70;2150.40;;;;;;5133257;27;20051;-78
2021/01/23 01:02:10;;;;;;;13.50;7.22;;;230.40;2150.40;;;;;;5132044;28;20028;-79
2021/01/23 01:04:36;;;;;;;15.75;7.22;;;205.70;2150.40;;;;;;5132291;28;20027;-79
2021/01/23 01:07:01;;;;;;;14.65;7.28;;;205.70;2150.40;;;;;;5132027;28;20030;-78
2021/01/23 01:09:27;;;;;;;12.90;6.68;;;205.70;2176.00;;;;;;5132080;28;20550;-77
2021/01/23 01:11:53;;;;;;;15.68;7.00;;;205.70;2176.00;;;;;;5133355;27;20076;-78
2021/01/23 01:14:19;;;;;;;16.27;7.03;;;205.70;2176.00;;;;;;5134222;27;20020;-77
2021/01/23 01:16:45;;;;;;;14.70;6.25;;;205.70;2150.40;;;;;;5136892;27;20372;-76
2021/01/23 01:19:10;;;;;;;12.88;6.13;;;205.70;2150.40;;;;;;5135444;27;20490;-77
2021/01/23 01:21:36;;;;;;;14.32;6.70;;;205.70;2150.40;;;;;;5135417;27;20023;-82
2021/01/23 01:24:02;;;;;;;12.65;6.70;;;230.40;2150.40;;;;;;5136768;27;20117;-81
2021/01/23 01:26:28;;;;;;;13.50;6.65;;;230.40;2150.40;;;;;;5136703;27;20454;-82
2021/01/23 01:28:54;;;;;;;9.90;5.75;;;230.40;2150.40;;;;;;5134956;27;20050;-82
2021/01/23 01:31:21;;;;;;;11.43;6.07;;;230.40;2150.40;;;;;;5136202;27;20119;-81
2021/01/23 01:33:47;;;;;;;12.30;5.88;;;230.40;2150.40;;;;;;5132459;27;20080;-82
2021/01/23 01:36:13;;;;;;;10.43;5.53;;;230.40;2150.40;;;;;;5135822;27;20027;-76
2021/01/23 01:38:39;;;;;;;10.98;5.63;;;230.40;2150.40;;;;;;5136710;27;20019;-78
2021/01/23 01:41:05;;;;;;;11.40;5.65;;;230.40;2150.40;;;;;;5135444;27;20032;-83
2021/01/23 01:43:31;;;;;;;10.38;5.75;;;230.40;2150.40;;;;;;5136882;27;20023;-82
2021/01/23 01:45:57;;;;;;;10.75;5.30;;;230.40;2150.40;;;;;;5135199;27;20019;-83
2021/01/23 01:48:23;;;;;;;13.15;5.70;;;230.40;2124.80;;;;;;5135503;27;20054;-82
2021/01/23 01:50:51;;;;;;;13.38;6.18;;;230.40;2124.80;;;;;;5135412;27;20030;-83
2021/01/23 01:53:21;;;;;;;11.32;5.55;;;230.40;2124.80;;;;;;5135680;27;20360;-81
2021/01/23 01:55:47;;;;;;;11.30;5.22;;;230.50;2124.80;;;;;;5135535;27;20015;-82
2021/01/23 01:58:13;;;;;;;12.38;5.63;;;230.50;2124.80;;;;;;5136693;27;20020;-83
2021/01/23 02:00:39;;;;;;;11.23;5.32;;;230.50;2124.80;;;;;;5135476;27;20080;-82
2021/01/23 02:03:30;;;;;;;11.02;5.55;;;230.50;2124.80;;;;;;5135287;27;20029;-81
2021/01/23 02:06:15;;;;;;;9.75;4.88;;;230.50;2124.80;;;;;;5130014;27;20066;-81
2021/01/23 02:08:47;;;;;;;10.40;5.07;;;230.50;2124.80;;;;;;5134401;27;20467;-81
2021/01/23 02:11:49;;;;;;;9.55;5.20;;;230.50;2099.20;;;;;;5123278;27;20440;-80
2021/01/23 02:14:17;;;;;;;15.55;6.47;;;230.60;2099.20;;;;;;5136071;27;20019;-81
2021/01/23 02:16:49;;;;;;;10.45;5.78;;;230.60;2099.20;;;;;;5134639;27;20546;-81
2021/01/23 02:19:28;;;;;;;14.02;5.85;;;230.60;2099.20;;;;;;5134543;27;20039;-80
2021/01/23 02:22:04;;;;;;;10.30;5.38;;;230.60;2099.20;;;;;;5135865;27;20079;-81
2021/01/23 02:24:31;;;;;;;12.07;5.55;;;230.60;2099.20;;;;;;5134213;27;20029;-82
2021/01/23 02:26:57;;;;;;;12.20;4.90;;;230.60;2099.20;;;;;;5135545;27;20027;-81
2021/01/23 02:29:37;;;;;;;11.15;5.93;;;230.60;2099.20;;;;;;5134359;27;20371;-81
2021/01/23 02:32:04;;;;;;;9.25;4.80;;;230.70;2073.60;;;;;;5134722;27;20034;-81
2021/01/23 02:34:31;;;;;;;9.02;3.95;;;230.70;2073.60;;;;;;5135660;27;20015;-81
2021/01/23 02:37:00;;;;;;;10.45;4.32;;;230.70;2073.60;;;;;;5134560;27;20180;-82
2021/01/23 02:39:27;;;;;;;8.98;4.22;;;230.70;2073.60;;;;;;5134640;27;20375;-82
2021/01/23 02:41:54;;;;;;;8.98;4.45;;;230.70;2073.60;;;;;;5134669;27;20027;-82
2021/01/23 02:44:20;;;;;;;11.65;4.75;;;230.80;2073.60;;;;;;5135596;27;20021;-80
2021/01/23 02:46:51;;;;;;;9.38;4.35;;;230.80;2073.60;;;;;;5135526;27;20027;-77
2021/01/23 02:49:18;;;;;;;8.07;3.55;;;230.80;2048.00;;;;;;5135659;27;20019;-82
2021/01/23 02:52:08;;;;;;;11.80;3.60;;;230.80;2048.00;;;;;;5135476;27;20452;-83
2021/01/23 02:55:04;;;;;;;8.55;4.05;;;230.80;2048.00;;;;;;5135520;27;20023;-78
2021/01/23 02:57:31;;;;;;;10.70;4.05;;;230.80;2048.00;;;;;;5135322;27;20469;-82
2021/01/23 03:00:04;;;;;;;8.55;3.83;;;230.80;2048.00;;;;;;5135095;27;20515;-81
2021/01/23 03:02:30;;;;;;;;;;;230.80;2048.00;;;;;;5134248;27;20023;-81
2021/01/23 03:04:58;;;;;;;6.38;3.13;;;230.80;2048.00;;;;;;5168535;27;19914;-79
2021/01/23 03:07:24;;;;;;;8.68;4.70;;;230.90;2048.00;;;;;;5134909;27;20075;-77
2021/01/23 03:09:50;;;;;;;14.15;5.10;;;230.90;2048.00;;;;;;5133349;27;20107;-81
2021/01/23 03:12:16;;;;;;;10.00;3.80;;;230.90;2048.00;;;;;;5134122;27;20031;-82
2021/01/23 03:14:42;;;;;;;9.90;4.03;;;230.90;2022.40;;;;;;5134178;27;20157;-82
2021/01/23 03:17:07;;;;;;;10.68;4.35;;;230.90;2022.40;;;;;;5133876;27;20052;-81
2021/01/23 03:19:33;;;;;;;11.95;4.97;;;231.00;2022.40;;;;;;5134857;27;20050;-75
2021/01/23 03:21:59;;;;;;;9.98;4.70;;;231.00;2022.40;;;;;;5134990;27;20111;-81
2021/01/23 03:24:25;;;;;;;9.85;4.40;;;230.90;2022.40;;;;;;5133525;27;20501;-80
2021/01/23 03:26:51;;;;;;;8.38;4.53;;;230.90;2048.00;;;;;;5134953;27;20035;-77
2021/01/23 03:29:18;;;;;;;12.27;4.47;;;230.90;2048.00;;;;;;5134507;27;20499;-75
2021/01/23 03:31:45;;;;;;;10.30;3.75;;;231.00;2048.00;;;;;;5133561;27;20027;-82
2021/01/23 03:34:11;;;;;;;9.50;4.10;;;230.90;2048.00;;;;;;5134732;27;20054;-81
2021/01/23 03:36:37;;;;;;;10.18;4.35;;;230.90;2022.40;;;;;;5134189;27;20043;-81
2021/01/23 03:39:07;;;;;;;8.02;4.05;;;231.00;2022.40;;;;;;5134511;27;20019;-81
2021/01/23 03:41:33;;;;;;;11.65;3.38;;;230.90;2022.40;;;;;;5134645;27;20069;-82
2021/01/23 03:44:00;;;;;;;12.77;4.35;;;230.90;2022.40;;;;;;5134742;27;20576;-76
2021/01/23 03:46:26;;;;;;;9.40;3.58;;;231.00;2022.40;;;;;;5133554;27;20023;-79
2021/01/23 03:48:52;;;;;;;9.07;3.15;;;231.00;2022.40;;;;;;5133274;27;20030;-81
2021/01/23 03:51:17;;;;;;;9.95;3.65;;;231.00;2022.40;;;;;;5133683;27;20118;-81
2021/01/23 03:53:43;;;;;;;8.65;3.42;;;231.00;2022.40;;;;;;5133666;27;20024;-82
2021/01/23 03:56:09;;;;;;;7.07;3.72;;;231.00;1996.80;;;;;;5133542;27;20169;-80
2021/01/23 03:58:35;;;;;;;5.57;3.13;;;231.00;1996.80;;;;;;5134300;27;20023;-82
2021/01/23 04:01:02;;;;;;;7.30;3.92;;;231.00;1996.80;;;;;;5133307;28;20075;-80
2021/01/23 04:03:28;;;;;;;12.45;4.80;;;231.00;1996.80;;;;;;5132927;28;20027;-82
2021/01/23 04:05:54;;;;;;;10.23;3.88;;;231.00;1996.80;;;;;;5133362;28;20019;-83
2021/01/23 04:08:20;;;;;;;8.43;3.20;;;231.00;1996.80;;;;;;5133325;28;20053;-82
2021/01/23 04:10:46;;;;;;;9.95;3.10;;;231.00;1996.80;;;;;;5133176;28;20560;-80
2021/01/23 04:13:12;;;;;;;9.05;4.00;;;231.00;1996.80;;;;;;5134412;27;20523;-83
2021/01/23 04:15:38;;;;;;;9.10;2.85;;;231.00;1996.80;;;;;;5134513;28;20023;-82
2021/01/23 04:18:05;;;;;;;7.88;3.40;;;231.10;1996.80;;;;;;5134520;27;20094;-83
2021/01/23 04:20:31;;;;;;;7.75;3.35;;;231.10;1971.20;;;;;;5133095;28;20023;-84
2021/01/23 04:22:56;;;;;;;6.88;3.00;;;231.10;1996.80;;;;;;5134304;27;20022;-82
2021/01/23 04:25:22;;;;;;;6.63;3.67;;;231.10;1996.80;;;;;;5132140;28;20027;-74
2021/01/23 04:27:48;;;;;;;8.77;3.63;;;231.10;1971.20;;;;;;5133412;27;20152;-75
2021/01/23 04:30:15;;;;;;;15.80;5.57;;;231.10;1971.20;;;;;;5131764;28;20110;-78
2021/01/23 04:32:40;;;;;;;22.45;8.20;;;231.10;1971.20;;;;;;5131820;28;20030;-75
2021/01/23 04:35:09;;;;;;;21.67;8.77;;;231.10;1971.20;;;;;;5132095;28;20015;-80
2021/01/23 04:37:37;;;;;;;22.25;7.85;;;231.00;1971.20;;;;;;5132276;28;20481;-79
2021/01/23 04:40:04;;;;;;;15.48;6.40;;;231.00;1971.20;;;;;;5133324;27;20015;-78
2021/01/23 04:42:30;;;;;;;21.60;7.25;;;231.00;1996.80;;;;;;5133071;27;20094;-79
2021/01/23 04:44:56;;;;;;;17.33;7.13;;;231.00;1971.20;;;;;;5133281;27;20145;-78
2021/01/23 04:47:22;;;;;;;17.02;6.55;;;231.00;1971.20;;;;;;5131873;27;20051;-76
2021/01/23 04:49:48;;;;;;;16.58;7.20;;;231.00;1971.20;;;;;;5136598;27;20448;-81
2021/01/23 04:52:14;;;;;;;17.80;7.65;;;230.90;1971.20;;;;;;5135982;27;20030;-80
2021/01/23 04:54:43;;;;;;;13.98;6.03;;;230.90;1971.20;;;;;;5136118;27;20042;-79
2021/01/23 04:57:10;;;;;;;18.38;5.95;;;230.90;1971.20;;;;;;5137760;27;20023;-80
2021/01/23 04:59:36;;;;;;;11.75;3.97;;;230.90;1971.20;;;;;;5137325;27;20080;-73
2021/01/23 05:02:19;;;;;;;8.88;3.90;;;230.90;1971.20;;;;;;5137774;27;20020;-73
2021/01/23 05:05:00;;;;;;;11.43;4.15;;;230.90;1971.20;;;;;;5136359;27;20031;-73
2021/01/23 05:07:32;;;;;;;6.68;4.43;;;230.90;1971.20;;;;;;5136414;27;20030;-73
2021/01/23 05:10:16;;;;;;;11.60;4.45;;;230.90;1971.20;;;;;;5136249;27;20023;-73
2021/01/23 05:12:46;;;;;;;9.48;4.15;;;230.90;1971.20;;;;;;5136501;27;20383;-73
2021/01/23 05:15:22;;;;;;;9.88;3.90;;;230.90;1996.80;;;;;;5137654;27;20027;-73
2021/01/23 05:17:56;;;;;;;9.82;3.88;;;230.80;1996.80;;;;;;5136176;27;20483;-73
2021/01/23 05:20:34;;;;;;;12.18;3.75;;;230.90;1996.80;;;;;;5136191;27;20064;-73
2021/01/23 05:23:09;;;;;;;10.82;3.70;;;230.80;1996.80;;;;;;5137727;27;20024;-72
2021/01/23 05:25:37;;;;;;;9.10;3.58;;;230.90;1971.20;;;;;;5137423;27;20068;-72
2021/01/23 05:28:04;;;;;;;10.40;3.90;;;230.80;1971.20;;;;;;5137285;27;20123;-73
2021/01/23 05:30:51;;;;;;;8.38;4.47;;;230.90;1971.20;;;;;;5135836;27;20407;-73
2021/01/23 05:33:32;;;;;;;11.95;4.75;;;230.90;1971.20;;;;;;5135832;27;20072;-74
2021/01/23 05:36:09;;;;;;;13.00;5.30;;;230.90;1971.20;;;;;;5137085;27;20019;-73
2021/01/23 05:38:43;;;;;;;13.27;6.32;;;230.90;1971.20;;;;;;5137377;27;20030;-73
2021/01/23 05:41:08;;;;;;;10.00;4.45;;;230.80;1971.20;;;;;;5137105;27;20107;-73
2021/01/23 05:43:49;;;;;;;9.55;5.25;;;230.90;1971.20;;;;;;5136925;27;20106;-73
2021/01/23 05:46:17;;;;;;;9.90;4.15;;;230.90;1971.20;;;;;;5135726;27;20028;-72
2021/01/23 05:48:44;;;;;;;12.65;4.97;;;230.80;1971.20;;;;;;5135543;27;20091;-72
2021/01/23 05:51:11;;;;;;;15.52;5.53;;;230.80;1971.20;;;;;;5135415;27;20046;-73
2021/01/23 05:53:37;;;;;;;19.05;6.32;;;230.80;1996.80;;;;;;5136740;27;20459;-74
2021/01/23 05:56:04;;;;;;;14.55;5.72;;;230.80;1996.80;;;;;;5135394;27;20065;-77
2021/01/23 05:58:35;;;;;;;19.75;6.85;;;230.80;1996.80;;;;;;5136398;27;20042;-73
2021/01/23 06:01:14;;;;;;;21.08;7.22;;;230.70;1996.80;;;;;;5136414;27;20054;-73
2021/01/23 06:03:46;;;;;;;27.85;8.30;;;230.70;1996.80;;;;;;5135328;27;20023;-73
2021/01/23 06:06:12;;;;;;;18.92;7.05;;;230.70;2022.40;;;;;;5136656;27;20023;-73
2021/01/23 06:08:51;;;;;;;18.83;7.75;;;230.60;2022.40;;;;;;5136521;27;20387;-72
2021/01/23 06:11:20;;;;;;;16.17;8.45;;;230.60;2022.40;;;;;;5135167;27;20034;-73
2021/01/23 06:13:55;;;;;;;18.30;5.88;;;230.60;2048.00;;;;;;5135102;27;20023;-73
2021/01/23 06:16:33;;;;;;;10.82;5.55;;;230.50;2048.00;;;;;;5135085;27;20550;-73
2021/01/23 06:19:00;;;;;;;18.63;6.75;;;230.50;2048.00;;;;;;5134864;27;20473;-72
2021/01/23 06:21:44;;;;;;;17.17;7.30;;;230.50;2048.00;;;;;;5136051;27;20106;-73
2021/01/23 06:24:14;;;;;;;22.05;8.43;;;230.50;2048.00;;;;;;5136038;27;20487;-73
2021/01/23 06:26:55;;;;;;;21.52;6.28;;;230.50;2048.00;;;;;;5135912;27;20030;-73
2021/01/23 06:29:34;;;;;;;19.15;6.65;;;230.50;2048.00;;;;;;5134483;27;20019;-73
2021/01/23 06:32:23;;;;;;;13.88;5.40;;;230.50;2022.40;;;;;;5136104;27;20030;-73
2021/01/23 06:34:58;;;;;;;16.63;5.13;;;230.60;2022.40;;;;;;5127756;27;20031;-73
2021/01/23 06:37:33;;;;;;;15.70;4.95;;;230.60;2022.40;;;;;;5134449;27;20054;-72
2021/01/23 06:40:13;;;;;;;13.65;4.95;;;230.70;1996.80;;;;;;5135713;27;20015;-73
2021/01/23 06:42:49;;;;;;;12.95;5.68;;;230.70;1996.80;;;;;;5135958;27;20016;-76
2021/01/23 06:45:26;;;;;;;14.63;6.50;;;230.70;1996.80;;;;;;5134343;27;20064;-72
2021/01/23 06:47:57;;;;;;;19.50;6.10;;;230.70;1996.80;;;;;;5134272;27;20466;-77
2021/01/23 06:50:39;;;;;;;23.17;8.55;;;230.80;1996.80;;;;;;5134095;27;20032;-75
2021/01/23 06:53:20;;;;;;;18.10;8.77;;;230.80;1996.80;;;;;;5134199;27;20043;-79
2021/01/23 06:55:52;;;;;;;25.63;12.02;;;230.70;1996.80;;;;;;5135382;27;20019;-73
2021/01/23 06:58:19;;;;;;;22.98;9.35;;;230.70;1996.80;;;;;;5135740;27;20023;-73
2021/01/23 07:00:47;;;;;;;19.77;8.90;;;230.80;1996.80;;;;;;5135219;27;20043;-74
2021/01/23 07:03:14;;;;;;;19.35;8.90;;;230.80;1996.80;;;;;;5133877;27;20119;-73
2021/01/23 07:05:48;;;;;;;17.50;6.90;;;230.80;1996.80;;;;;;5133942;27;20015;-73
2021/01/23 07:08:25;;;;;;;17.58;7.38;;;230.80;1971.20;;;;;;5133912;27;20046;-73
2021/01/23 07:11:08;;;;;;;21.08;8.70;;;230.80;1996.80;;;;;;5133076;27;20055;-73
2021/01/23 07:13:35;;;;;;;25.55;11.32;;;230.80;1996.80;;;;;;5135264;27;20016;-73
2021/01/23 07:16:02;;;;;;;17.05;10.85;;;230.80;1996.80;;;;;;5133883;27;20475;-73
2021/01/23 07:18:28;;;;;;;15.18;8.80;;;230.80;1971.20;;;;;;5133889;27;20023;-74
2021/01/23 07:20:55;;;;;;;19.73;9.48;;;230.80;1971.20;;;;;;5135319;27;20467;-73
2021/01/23 07:23:21;;;;;;;16.25;7.95;;;230.80;1971.20;;;;;;5134999;27;20399;-73
2021/01/23 07:25:49;;;;;;;12.82;6.07;;;230.80;1971.20;;;;;;5135009;27;20071;-73
2021/01/23 07:28:19;;;;;;;15.88;7.25;;;230.80;1971.20;;;;;;5135034;27;20023;-73
2021/01/23 07:30:46;;;;;;;16.25;8.88;;;230.80;1971.20;;;;;;5135160;27;20035;-78
2021/01/23 07:33:12;;;;;;;20.48;8.20;;;230.90;1971.20;;;;;;5134899;27;20203;-73
2021/01/23 07:35:39;;;;;;;14.10;6.13;;;230.90;1971.20;;;;;;5134857;27;20127;-73
2021/01/23 07:38:06;;;;;;;15.75;6.57;;;230.90;1971.20;;;;;;5135148;27;20027;-73
2021/01/23 07:40:39;;;;;;;12.73;6.00;;;230.90;1971.20;;;;;;5133449;27;20016;-73
2021/01/23 07:43:06;;;;;;;11.63;5.97;;;230.90;1971.20;;;;;;5133545;27;20378;-73
2021/01/23 07:45:35;;;;;;;12.88;5.97;;;230.90;1971.20;;;;;;5134924;27;20022;-73
2021/01/23 07:48:04;;;;;;;18.98;5.82;;;230.90;1971.20;;;;;;5134694;27;20098;-73
2021/01/23 07:50:38;;;;;;;17.33;6.35;;;230.90;1971.20;;;;;;5133248;27;20045;-72
2021/01/23 07:53:15;;;;;;;;;;;230.90;1971.20;;;;;;5135044;27;20023;-78
2021/01/23 07:55:41;;;;;;;18.63;9.85;;;230.90;1971.20;;;;;;5133243;27;19904;-73
2021/01/23 07:58:10;;;;;;;23.60;11.43;;;230.90;1971.20;;;;;;5134536;27;20522;-73
2021/01/23 08:00:36;;;;;;;24.52;10.80;;;230.90;1971.20;;;;;;5132646;27;20128;-74
2021/01/23 08:03:03;;;;;;;20.92;10.05;;;230.90;1971.20;;;;;;5133051;27;20027;-73
2021/01/23 08:05:50;;;;;;;26.50;12.35;;;230.90;1971.20;;;;;;5132262;28;20479;-73
2021/01/23 08:08:38;;;;;;;17.83;9.45;;;231.00;1971.20;;;;;;5133110;28;20023;-74
2021/01/23 08:11:05;;;;;;;20.15;10.05;;;231.00;1945.60;;;;;;5131755;28;20064;-78
2021/01/23 08:13:33;;;;;;;19.33;8.90;;;231.00;1971.20;;;;;;5134383;27;20043;-73
2021/01/23 08:16:12;;;;;;;35.55;9.18;;;231.00;1971.20;;;;;;5133058;28;20053;-73
2021/01/23 08:18:39;;;;;;;20.75;8.18;;;231.00;1945.60;;;;;;5133024;28;20107;-73
2021/01/23 08:21:21;;;;;;;27.92;10.50;;;231.00;1945.60;;;;;;5134782;27;20026;-73
2021/01/23 08:23:47;;;;;;;17.25;7.90;;;231.10;1945.60;;;;;;5137697;27;20027;-73
2021/01/23 08:26:15;;;;;;;16.98;8.27;;;231.10;1945.60;;;;;;5138448;27;20029;-72
2021/01/23 08:28:46;;;;;;;14.40;7.80;;;231.10;1945.60;;;;;;5136898;27;20023;-73
2021/01/23 08:31:13;;;;;;;20.80;8.50;;;231.20;1945.60;;;;;;5136765;27;20032;-73
2021/01/23 08:33:39;;;;;;;21.00;7.95;;;231.20;1945.60;;;;;;5136807;27;20030;-73
2021/01/23 08:36:05;;;;;;;24.23;10.05;;;231.20;1945.60;;;;;;5136709;27;20027;-78
2021/01/23 08:38:31;;;;;;;22.27;8.68;;;231.20;1945.60;;;;;;5138032;27;20015;-72
2021/01/23 08:40:57;;;;;;;24.95;8.75;;;231.20;1945.60;;;;;;5136723;27;20030;-73
2021/01/23 08:43:23;;;;;;;18.80;9.68;;;231.20;1945.60;;;;;;5136728;27;20023;-73
2021/01/23 08:45:48;;;;;;;35.25;16.20;;;231.20;1920.00;;;;;;5137986;27;20023;-73
2021/01/23 08:48:16;;;;;;;38.95;14.85;;;231.20;1945.60;;;;;;5138009;27;20051;-73
2021/01/23 08:50:42;;;;;;;26.02;10.95;;;231.30;1945.60;;;;;;5136672;27;20032;-73
2021/01/23 08:53:08;;;;;;;23.25;10.48;;;231.30;1945.60;;;;;;5137951;27;20023;-72
2021/01/23 08:55:34;;;;;;;30.65;12.75;;;231.20;1945.60;;;;;;5136542;27;20364;-73
2021/01/23 08:58:00;;;;;;;28.05;11.95;;;231.30;1945.60;;;;;;5136608;27;20127;-73
2021/01/23 09:00:25;;;;;;;25.70;11.85;;;231.30;1945.60;;;;;;5136260;27;20047;-73
2021/01/23 09:02:51;;;;;;;20.90;9.45;;;231.30;1945.60;;;;;;5138072;27;20023;-72
2021/01/23 09:05:17;;;;;;;24.92;9.98;;;256.00;1945.60;;;;;;5137635;27;20027;-73
2021/01/23 09:07:43;;;;;;;20.33;10.63;;;256.00;1945.60;;;;;;5137595;27;20023;-73
2021/01/23 09:10:10;;;;;;;20.60;10.82;;;256.00;1945.60;;;;;;5136232;27;20039;-73
2021/01/23 09:12:36;;;;;;;17.80;8.52;;;256.00;1945.60;;;;;;5137815;27;20034;-74
2021/01/23 09:15:03;;;;;;;15.18;6.53;;;256.00;1945.60;;;;;;5137527;27;20031;-72
2021/01/23 09:17:29;;;;;;;14.52;8.35;;;256.00;1920.00;;;;;;5137381;27;20030;-73
2021/01/23 09:19:55;;;;;;;14.55;7.43;;;256.10;1920.00;;;;;;5136091;27;20454;-73
2021/01/23 09:22:21;;;;;;;22.75;10.85;;;256.10;1920.00;;;;;;5137340;27;20057;-73
2021/01/23 09:24:47;;;;;;;24.63;11.30;;;256.10;1920.00;;;;;;5136036;27;20023;-73
2021/01/23 09:27:13;;;;;;;17.83;9.15;;;256.10;1920.00;;;;;;5136041;27;20383;-73
2021/01/23 09:29:39;;;;;;;25.95;9.38;;;256.20;1920.00;;;;;;5137150;27;20023;-72
2021/01/23 09:32:06;;;;;;;20.48;8.60;;;256.10;1920.00;;;;;;5135879;27;20114;-73
2021/01/23 09:34:35;;;;;;;16.45;7.22;;;256.20;1920.00;;;;;;5134934;27;20375;-73
2021/01/23 09:37:02;;;;;;;14.68;7.07;;;256.20;1920.00;;;;;;5135807;27;20027;-72
2021/01/23 09:39:30;;;;;;;21.60;8.48;;;256.20;1920.00;;;;;;5135701;27;20410;-73
2021/01/23 09:41:57;;;;;;;17.88;7.40;;;256.20;1920.00;;;;;;5135662;27;20035;-72
2021/01/23 09:44:23;;;;;;;17.33;7.47;;;256.30;1920.00;;;;;;5136982;27;20023;-73
2021/01/23 09:46:50;;;;;;;17.67;8.20;;;256.30;1920.00;;;;;;5135587;27;20458;-73
2021/01/23 09:49:16;;;;;;;23.38;9.50;;;256.30;1920.00;;;;;;5135518;27;20029;-73
2021/01/23 09:51:41;;;;;;;17.08;7.75;;;256.30;1920.00;;;;;;5136717;27;20039;-74
2021/01/23 09:54:07;;;;;;;17.80;7.35;;;256.30;1920.00;;;;;;5135439;27;20378;-72
2021/01/23 09:56:33;;;;;;;26.50;11.65;;;256.30;1920.00;;;;;;5136666;27;20547;-73
2021/01/23 09:58:59;;;;;;;24.92;10.90;;;256.30;1920.00;;;;;;5136464;27;20122;-73
2021/01/23 10:01:25;;;;;;;18.25;8.98;;;256.30;1920.00;;;;;;5135452;27;20476;-73
2021/01/23 10:03:51;;;;;;;22.77;8.82;;;256.30;1920.00;;;;;;5136555;27;20028;-73
2021/01/23 10:06:17;;;;;;;26.40;11.90;;;256.30;1920.00;;;;;;5135314;27;20035;-73
2021/01/23 10:08:43;;;;;;;34.33;12.32;;;256.30;1920.00;;;;;;5135119;27;20168;-73
2021/01/23 10:11:09;;;;;;;22.38;9.60;;;256.40;1920.00;;;;;;5136354;27;20110;-73
2021/01/23 10:13:35;;;;;;;23.65;9.40;;;256.40;1920.00;;;;;;5136338;27;20083;-73
2021/01/23 10:16:02;;;;;;;24.48;9.20;;;256.40;1920.00;;;;;;5136365;27;20496;-73
2021/01/23 10:18:28;;;;;;;29.27;11.75;;;256.40;1920.00;;;;;;5136370;27;20027;-73
2021/01/23 10:20:54;;;;;;;19.30;9.50;;;256.40;1920.00;;;;;;5136249;27;20148;-73
2021/01/23 10:23:20;;;;;;;16.60;9.05;;;256.50;1920.00;;;;;;5136196;27;20019;-72
2021/01/23 10:25:46;;;;;;;26.08;11.73;;;256.50;1920.00;;;;;;5134841;27;20053;-73
2021/01/23 10:28:12;;;;;;;24.15;11.20;;;256.40;1920.00;;;;;;5136061;27;20376;-72
2021/01/23 10:30:38;;;;;;;18.17;9.82;;;256.50;1920.00;;;;;;5134753;27;20031;-73
2021/01/23 10:33:04;;;;;;;18.73;9.43;;;256.50;1894.40;;;;;;5134677;27;20046;-72
2021/01/23 10:35:30;;;;;;;17.40;9.80;;;256.50;1894.40;;;;;;5134622;27;20023;-72
2021/01/23 10:37:56;;;;;;;21.23;10.32;;;256.50;1894.40;;;;;;5134613;27;20030;-73
2021/01/23 10:40:22;;;;;;;23.35;14.07;;;256.50;1894.40;;;;;;5136018;27;20027;-73
2021/01/23 10:42:47;;;;;;;24.38;12.93;;;256.50;1920.00;;;;;;5135905;27;20025;-73
2021/01/23 10:45:13;;;;;;;18.92;11.02;;;256.50;1920.00;;;;;;5134373;27;20073;-79
2021/01/23 10:47:39;;;;;;;18.50;10.07;;;256.50;1920.00;;;;;;5135571;27;20087;-73
2021/01/23 10:50:07;;;;;;;18.83;9.02;;;256.60;1920.00;;;;;;5135626;27;20062;-73
2021/01/23 10:52:33;;;;;;;18.27;10.07;;;256.50;1920.00;;;;;;5135401;27;20057;-71
2021/01/23 10:54:59;;;;;;;20.00;9.38;;;256.50;1920.00;;;;;;5135465;27;20059;-72
2021/01/23 10:57:25;;;;;;;17.00;9.55;;;256.50;1894.40;;;;;;5135478;27;20054;-72
2021/01/23 10:59:51;;;;;;;16.98;8.73;;;256.50;1894.40;;;;;;5133805;27;20051;-71
2021/01/23 11:02:17;;;;;;;23.65;13.13;;;256.60;1894.40;;;;;;5134091;27;20383;-71
2021/01/23 11:04:43;;;;;;;26.15;12.15;;;256.50;1920.00;;;;;;5134851;27;20106;-71
2021/01/23 11:07:08;;;;;;;21.13;11.15;;;256.60;1894.40;;;;;;5134988;27;20020;-76
2021/01/23 11:09:34;;;;;;;35.40;21.00;;;256.60;1894.40;;;;;;5134982;27;20459;-75
2021/01/23 11:12:00;;;;;;;30.58;18.40;;;256.60;1894.40;;;;;;5133710;27;20823;-77
2021/01/23 11:14:26;;;;;;;42.22;23.65;;;256.60;1894.40;;;;;;5133843;27;20413;-78
2021/01/23 11:16:52;;;;;;;32.08;16.52;;;256.60;1920.00;;;;;;5135369;27;20054;-85
2021/01/23 11:19:18;;;;;;;47.03;27.38;;;256.60;1894.40;;;;;;5135111;27;20023;-80
2021/01/23 11:21:44;;;;;;;58.22;33.25;;;256.70;1894.40;;;;;;5128921;27;20083;-70
2021/01/23 11:24:10;;;;;;;43.97;24.90;;;256.70;1920.00;;;;;;5132699;27;20463;-70
2021/01/23 11:26:36;;;;;;;36.55;21.63;;;256.70;1894.40;;;;;;5133162;27;20076;-76
2021/01/23 11:29:02;;;;;;;30.15;15.88;;;256.70;1894.40;;;;;;5134433;27;20031;-75
2021/01/23 11:31:27;;;;;;;32.72;17.20;;;256.70;1894.40;;;;;;5133209;27;20035;-71
2021/01/23 11:33:54;;;;;;;36.83;20.67;;;256.70;1894.40;;;;;;5134098;27;20478;-71
2021/01/23 11:36:20;;;;;;;47.15;27.23;;;256.70;1894.40;;;;;;5134657;27;20113;-76
2021/01/23 11:38:47;;;;;;;62.38;34.75;;;256.70;1894.40;;;;;;5134425;27;20092;-76
2021/01/23 11:41:13;;;;;;;38.53;21.98;;;256.70;1894.40;;;;;;5134685;27;20106;-74
2021/01/23 11:43:40;;;;;;;31.67;17.70;;;256.70;1894.40;;;;;;5133400;27;20062;-75
2021/01/23 11:46:07;;;;;;;38.92;15.82;;;256.80;1894.40;;;;;;5134689;27;20471;-76
2021/01/23 11:48:33;;;;;;;54.45;27.08;;;256.80;1894.40;;;;;;5133290;27;20021;-70
2021/01/23 11:50:58;;;;;;;36.90;18.20;;;256.80;1894.40;;;;;;5134637;27;20031;-70
2021/01/23 11:53:24;;;;;;;38.38;17.15;;;256.90;1894.40;;;;;;5134531;27;20023;-76
2021/01/23 11:55:50;;;;;;;30.65;14.77;;;256.90;1894.40;;;;;;5134400;27;20024;-75
2021/01/23 11:58:17;;;;;;;30.27;15.25;;;256.90;1868.80;;;;;;5134098;27;20034;-75
2021/01/23 12:00:43;;;;;;;37.80;18.33;;;256.90;1868.80;;;;;;5134310;27;20050;-76
2021/01/23 12:03:10;;;;;;;29.38;12.63;;;281.60;1894.40;;;;;;5134366;27;20019;-70
2021/01/23 12:05:36;;;;;;;28.83;14.23;;;281.60;1894.40;;;;;;5134319;28;20109;-76
2021/01/23 12:08:02;;;;;;;27.02;12.73;;;281.60;1894.40;;;;;;5134432;28;20123;-77
2021/01/23 12:10:28;;;;;;;34.78;14.45;;;281.70;1894.40;;;;;;5132610;28;20419;-70
2021/01/23 12:12:55;;;;;;;40.22;18.98;;;281.70;1894.40;;;;;;5134208;28;20137;-75
2021/01/23 12:15:22;;;;;;;31.45;14.02;;;281.70;1894.40;;;;;;5134336;28;20448;-69